createdAt,value
2022-10-13T00:00:45.577Z,17.50
2022-10-13T00:03:17.031Z,14.80
2022-10-13T00:05:49.654Z,19.60
2022-10-13T00:08:22.110Z,17.90
2022-10-13T00:10:53.129Z,27.20
2022-10-13T00:13:27.361Z,26.20
2022-10-13T00:15:57.943Z,26.50
2022-10-13T00:18:31.552Z,28.10
2022-10-13T00:21:02.058Z,24.90
2022-10-13T00:23:32.676Z,24.20
2022-10-13T00:26:05.535Z,26.10
2022-10-13T00:28:36.314Z,26.60
2022-10-13T00:31:10.697Z,30.40
2022-10-13T00:33:41.181Z,30.10
2022-10-13T00:36:11.977Z,27.90
2022-10-13T00:38:42.422Z,30.40
2022-10-13T00:41:12.956Z,29.00
2022-10-13T00:43:58.092Z,25.10
2022-10-13T00:46:30.582Z,25.60
2022-10-13T00:49:05.648Z,25.60
2022-10-13T00:51:39.657Z,25.70
2022-10-13T00:54:13.177Z,29.10
2022-10-13T00:56:43.844Z,24.70
2022-10-13T00:59:19.089Z,25.10
2022-10-13T01:01:49.914Z,26.70
2022-10-13T01:04:22.745Z,29.90
2022-10-13T01:06:53.347Z,27.90
2022-10-13T01:09:23.841Z,28.80
2022-10-13T01:12:02.563Z,24.90
2022-10-13T01:14:37.546Z,29.50
2022-10-13T01:17:13.085Z,29.10
2022-10-13T01:20:17.768Z,31.80
2022-10-13T01:22:58.797Z,30.00
2022-10-13T01:25:45.597Z,30.10
2022-10-13T01:28:40.142Z,30.10
2022-10-13T01:31:16.293Z,37.40
2022-10-13T01:33:51.940Z,33.70
2022-10-13T01:36:30.176Z,34.40
2022-10-13T01:39:04.814Z,32.50
2022-10-13T01:41:38.811Z,28.00
2022-10-13T01:44:16.345Z,31.60
2022-10-13T01:46:54.442Z,28.40
2022-10-13T01:49:28.531Z,29.40
2022-10-13T01:52:02.766Z,27.60
2022-10-13T01:54:34.909Z,29.30
2022-10-13T01:57:05.689Z,27.00
2022-10-13T01:59:38.756Z,25.20
2022-10-13T02:02:13.676Z,29.70
2022-10-13T02:04:52.528Z,40.50
2022-10-13T02:07:26.803Z,28.10
2022-10-13T02:10:02.253Z,30.10
2022-10-13T02:12:36.324Z,30.50
2022-10-13T02:15:08.817Z,27.50
2022-10-13T02:17:39.318Z,25.70
2022-10-13T02:20:11.780Z,25.60
2022-10-13T02:22:44.437Z,24.50
2022-10-13T02:25:15.020Z,22.50
2022-10-13T02:27:46.051Z,22.10
2022-10-13T02:30:25.475Z,23.90
2022-10-13T02:32:55.924Z,22.70
2022-10-13T02:35:26.334Z,16.70
2022-10-13T02:37:56.746Z,20.20
2022-10-13T02:40:27.512Z,17.50
2022-10-13T02:42:58.048Z,21.50
2022-10-13T02:45:28.464Z,17.00
2022-10-13T02:47:59.036Z,18.40
2022-10-13T02:50:29.625Z,21.00
2022-10-13T02:53:00.344Z,20.00
2022-10-13T02:55:31.966Z,17.20
2022-10-13T02:58:02.977Z,15.20
2022-10-13T03:00:33.504Z,17.90
2022-10-13T03:03:04.329Z,19.70
2022-10-13T03:05:35.629Z,16.00
2022-10-13T03:08:06.657Z,16.70
2022-10-13T03:10:37.118Z,19.00
2022-10-13T03:13:07.679Z,17.40
2022-10-13T03:15:38.309Z,16.10
2022-10-13T03:18:09.694Z,21.40
2022-10-13T03:20:40.162Z,17.50
2022-10-13T03:23:10.618Z,14.60
2022-10-13T03:25:41.404Z,17.50
2022-10-13T03:28:15.508Z,17.80
2022-10-13T03:30:47.083Z,17.90
2022-10-13T03:33:18.030Z,15.40
2022-10-13T03:35:48.721Z,18.50
2022-10-13T03:38:19.423Z,19.40
2022-10-13T03:40:50.358Z,14.80
2022-10-13T03:43:20.992Z,18.60
2022-10-13T03:45:58.491Z,15.40
2022-10-13T03:48:45.031Z,16.90
2022-10-13T03:51:17.525Z,14.20
2022-10-13T03:53:53.754Z,16.90
2022-10-13T03:56:26.012Z,15.00
2022-10-13T03:58:58.307Z,15.20
2022-10-13T04:01:31.034Z,20.60
2022-10-13T04:04:03.294Z,17.80
2022-10-13T04:06:34.423Z,17.60
2022-10-13T04:09:05.177Z,16.90
2022-10-13T04:11:35.804Z,15.10
2022-10-13T04:20:01.517Z,21.00
2022-10-13T04:22:32.371Z,19.40
2022-10-13T04:25:03.380Z,20.00
2022-10-13T04:27:34.180Z,21.70
2022-10-13T04:30:09.472Z,20.70
2022-10-13T04:32:42.302Z,20.90
2022-10-13T04:35:15.024Z,21.50
2022-10-13T04:37:45.476Z,16.00
2022-10-13T04:40:16.234Z,16.50
2022-10-13T04:42:46.843Z,16.10
2022-10-13T04:45:17.393Z,15.90
2022-10-13T04:47:53.484Z,13.20
2022-10-13T04:50:25.626Z,18.00
2022-10-13T04:53:02.572Z,18.10
2022-10-13T04:55:33.507Z,18.50
2022-10-13T04:58:04.232Z,18.50
2022-10-13T05:00:34.910Z,20.70
2022-10-13T05:03:05.648Z,20.90
2022-10-13T05:05:38.687Z,24.10
2022-10-13T05:10:38.373Z,22.30
2022-10-13T05:13:08.971Z,23.20
2022-10-13T05:15:41.242Z,24.20
2022-10-13T05:18:11.651Z,28.20
2022-10-13T05:20:42.079Z,22.20
2022-10-13T05:23:12.557Z,24.70
2022-10-13T05:25:43.002Z,28.50
2022-10-13T05:28:16.749Z,22.50
2022-10-13T05:30:47.664Z,24.10
2022-10-13T05:33:18.277Z,24.00
2022-10-13T05:42:04.684Z,21.30
2022-10-13T05:44:36.450Z,24.40
2022-10-13T05:47:07.752Z,20.10
2022-10-13T05:49:39.705Z,21.00
2022-10-13T05:52:11.587Z,24.50
2022-10-13T05:54:44.098Z,23.50
2022-10-13T05:59:51.764Z,30.00
2022-10-13T06:02:23.761Z,30.00
2022-10-13T06:04:56.881Z,28.00
2022-10-13T06:07:27.460Z,28.20
2022-10-13T06:09:58.910Z,26.60
2022-10-13T06:12:29.442Z,36.20
2022-10-13T06:14:59.876Z,37.30
2022-10-13T06:17:30.514Z,31.20
2022-10-13T06:20:00.971Z,29.10
2022-10-13T06:22:31.715Z,22.20
2022-10-13T06:25:02.408Z,20.40
2022-10-13T06:27:33.566Z,19.10
2022-10-13T06:30:04.344Z,19.10
2022-10-13T06:32:35.008Z,19.30
2022-10-13T06:35:06.295Z,19.90
2022-10-13T06:37:36.987Z,20.60
2022-10-13T06:40:10.694Z,17.70
2022-10-13T06:42:41.337Z,22.30
2022-10-13T06:45:13.394Z,18.60
2022-10-13T06:47:43.965Z,17.10
2022-10-13T06:50:14.977Z,16.40
2022-10-13T06:52:45.526Z,18.40
2022-10-13T06:55:16.946Z,17.80
2022-10-13T06:57:47.864Z,18.50
2022-10-13T07:00:19.111Z,19.40
2022-10-13T07:02:53.725Z,19.80
2022-10-13T07:05:25.162Z,20.40
2022-10-13T07:07:55.886Z,22.00
2022-10-13T07:10:26.390Z,23.20
2022-10-13T07:12:56.923Z,19.40
2022-10-13T07:15:28.857Z,15.30
2022-10-13T07:17:59.503Z,20.10
2022-10-13T07:20:31.111Z,18.10
2022-10-13T07:23:02.892Z,17.60
2022-10-13T07:25:33.667Z,18.70
2022-10-13T07:28:04.433Z,18.20
2022-10-13T07:30:35.105Z,17.90
2022-10-13T07:33:05.775Z,15.70
2022-10-13T07:35:38.936Z,18.20
2022-10-13T07:38:09.996Z,18.30
2022-10-13T07:40:40.718Z,19.60
2022-10-13T07:43:11.181Z,19.50
2022-10-13T07:45:41.723Z,17.00
2022-10-13T07:48:12.428Z,15.50
2022-10-13T07:50:43.179Z,19.90
2022-10-13T07:53:13.655Z,23.40
2022-10-13T07:55:44.201Z,20.00
2022-10-13T07:58:14.996Z,20.20
2022-10-13T08:00:45.487Z,21.00
2022-10-13T08:03:16.045Z,18.90
2022-10-13T08:05:46.515Z,17.40
2022-10-13T08:08:17.049Z,18.20
2022-10-13T08:10:47.811Z,18.50
2022-10-13T08:13:18.422Z,17.70
2022-10-13T08:15:49.112Z,20.20
2022-10-13T08:18:19.757Z,18.80
2022-10-13T08:20:50.306Z,17.40
2022-10-13T08:23:21.840Z,16.50
2022-10-13T08:25:53.926Z,21.50
2022-10-13T08:28:28.362Z,17.30
2022-10-13T08:30:59.413Z,21.30
2022-10-13T08:33:29.914Z,19.70
2022-10-13T08:36:00.475Z,18.60
2022-10-13T08:38:31.047Z,23.00
2022-10-13T08:41:01.659Z,26.00
2022-10-13T08:43:34.766Z,19.40
2022-10-13T08:46:05.534Z,20.20
2022-10-13T08:51:09.038Z,19.10
2022-10-13T08:53:42.681Z,23.40
2022-10-13T08:56:19.306Z,22.60
2022-10-13T08:58:51.630Z,19.80
2022-10-13T09:01:23.728Z,22.30
2022-10-13T09:03:56.577Z,22.50
2022-10-13T09:09:02.492Z,21.70
2022-10-13T09:11:35.951Z,19.70
2022-10-13T09:14:08.530Z,24.20
2022-10-13T09:16:41.543Z,20.50
2022-10-13T09:19:23.794Z,21.60
2022-10-13T09:21:55.698Z,21.80
2022-10-13T09:24:27.863Z,23.60
2022-10-13T09:27:08.374Z,22.90
2022-10-13T09:29:43.097Z,22.50
2022-10-13T09:32:23.804Z,24.80
2022-10-13T09:34:55.548Z,26.50
2022-10-13T09:37:26.686Z,28.40
2022-10-13T09:40:13.456Z,28.20
2022-10-13T09:42:44.172Z,28.80
2022-10-13T09:45:18.239Z,28.20
2022-10-13T09:47:55.351Z,26.90
2022-10-13T09:50:27.919Z,23.70
2022-10-13T09:53:17.329Z,33.40
2022-10-13T09:55:49.564Z,29.20
2022-10-13T09:58:26.269Z,28.40
2022-10-13T10:00:57.150Z,30.80
2022-10-13T10:03:30.723Z,31.20
2022-10-13T10:06:03.483Z,31.80
2022-10-13T10:11:14.997Z,26.90
2022-10-13T10:13:46.123Z,31.60
2022-10-13T10:16:24.744Z,25.40
2022-10-13T10:19:00.409Z,26.90
2022-10-13T10:21:34.758Z,29.10
2022-10-13T10:24:13.894Z,33.10
2022-10-13T10:26:50.047Z,31.70
2022-10-13T10:29:27.506Z,24.50
2022-10-13T10:32:11.224Z,24.60
2022-10-13T10:34:46.684Z,25.10
2022-10-13T10:37:25.595Z,21.00
2022-10-13T10:40:04.678Z,24.80
2022-10-13T10:42:55.325Z,30.00
2022-10-13T10:45:29.437Z,22.00
2022-10-13T10:48:03.127Z,30.10
2022-10-13T10:50:34.614Z,29.20
2022-10-13T10:53:10.157Z,28.40
2022-10-13T10:55:47.677Z,29.80
2022-10-13T10:58:28.527Z,33.50
2022-10-13T11:01:04.114Z,27.30
2022-10-13T11:03:44.747Z,26.80
2022-10-13T11:06:37.427Z,30.60
2022-10-13T11:09:11.136Z,31.40
2022-10-13T11:11:43.218Z,30.90
2022-10-13T11:14:34.487Z,32.10
2022-10-13T11:17:19.728Z,32.70
2022-10-13T11:19:51.482Z,31.20
2022-10-13T11:22:24.370Z,31.30
2022-10-13T11:25:00.350Z,27.50
2022-10-13T11:27:45.203Z,28.90
2022-10-13T11:30:43.321Z,27.80
2022-10-13T11:33:37.496Z,28.40
2022-10-13T11:36:44.830Z,27.10
2022-10-13T11:39:38.605Z,34.90
2022-10-13T11:42:27.837Z,26.30
2022-10-13T11:45:00.435Z,27.00
2022-10-13T11:47:53.852Z,23.80
2022-10-13T11:50:33.719Z,25.60
2022-10-13T11:53:16.223Z,23.90
2022-10-13T11:55:53.005Z,26.10
2022-10-13T11:58:25.199Z,24.00
2022-10-13T12:00:58.640Z,27.30
2022-10-13T12:03:33.768Z,25.80
2022-10-13T12:06:06.386Z,23.50
2022-10-13T12:08:38.311Z,24.90
2022-10-13T12:11:10.618Z,25.60
2022-10-13T12:13:41.157Z,24.80
2022-10-13T12:16:13.368Z,31.80
2022-10-13T12:18:45.654Z,31.00
2022-10-13T12:21:19.930Z,30.40
2022-10-13T12:23:51.782Z,24.80
2022-10-13T12:26:24.258Z,26.90
2022-10-13T12:28:56.156Z,26.00
2022-10-13T12:31:28.933Z,28.10
2022-10-13T12:36:31.715Z,29.00
2022-10-13T12:39:05.680Z,27.00
2022-10-13T12:44:07.061Z,26.10
2022-10-13T12:46:46.672Z,26.00
2022-10-13T12:51:57.538Z,22.60
2022-10-13T12:54:30.035Z,24.70
2022-10-13T12:57:02.768Z,24.80
2022-10-13T13:02:05.345Z,25.00
2022-10-13T13:04:43.232Z,21.90
2022-10-13T13:07:29.961Z,22.10
2022-10-13T13:10:10.737Z,19.50
2022-10-13T13:12:41.289Z,24.80
2022-10-13T13:15:34.330Z,20.10
2022-10-13T13:18:25.667Z,23.60
2022-10-13T13:20:56.481Z,22.20
2022-10-13T13:23:33.304Z,18.20
2022-10-13T13:26:07.129Z,22.30
2022-10-13T13:28:37.625Z,26.20
2022-10-13T13:31:09.843Z,21.90
2022-10-13T13:33:40.337Z,20.40
2022-10-13T13:36:17.512Z,23.00
2022-10-13T13:38:50.501Z,22.30
2022-10-13T13:41:21.168Z,21.00
2022-10-13T13:43:51.649Z,23.80
2022-10-13T13:46:24.501Z,17.30
2022-10-13T13:48:57.328Z,25.20
2022-10-13T13:51:27.735Z,22.80
2022-10-13T13:53:58.385Z,20.60
2022-10-13T13:56:28.890Z,20.40
2022-10-13T13:58:59.445Z,23.70
2022-10-13T14:01:29.894Z,22.70
2022-10-13T14:04:00.575Z,26.50
2022-10-13T14:06:31.388Z,24.70
2022-10-13T14:09:02.978Z,27.70
2022-10-13T14:11:33.670Z,24.70
2022-10-13T14:14:04.353Z,24.30
2022-10-13T14:16:34.791Z,21.90
2022-10-13T14:19:07.429Z,24.30
2022-10-13T14:21:37.923Z,24.70
2022-10-13T14:24:10.797Z,21.90
2022-10-13T14:26:41.485Z,24.40
2022-10-13T14:29:11.956Z,19.60
2022-10-13T14:31:42.410Z,26.90
2022-10-13T14:34:16.567Z,23.60
2022-10-13T14:36:47.243Z,21.40
2022-10-13T14:39:19.546Z,18.80
2022-10-13T14:41:50.260Z,28.50
2022-10-13T14:44:21.207Z,25.40
2022-10-13T14:46:52.361Z,28.20
2022-10-13T14:49:22.838Z,26.50
2022-10-13T14:51:54.007Z,29.90
2022-10-13T14:54:24.545Z,27.40
2022-10-13T14:56:55.062Z,30.80
2022-10-13T14:59:25.412Z,29.60
2022-10-13T15:01:55.730Z,30.00
2022-10-13T15:04:26.406Z,28.50
2022-10-13T15:06:56.767Z,30.40
2022-10-13T15:09:38.983Z,30.30
2022-10-13T15:12:19.974Z,28.80
2022-10-13T15:14:50.680Z,27.90
2022-10-13T15:17:21.179Z,28.50
2022-10-13T15:19:51.861Z,27.50
2022-10-13T15:22:22.781Z,28.00
2022-10-13T15:24:53.590Z,30.30
2022-10-13T15:27:24.246Z,23.60
2022-10-13T15:29:54.862Z,29.50
2022-10-13T15:32:25.494Z,27.20
2022-10-13T15:35:04.514Z,27.50
2022-10-13T15:37:37.730Z,24.80
2022-10-13T15:40:10.543Z,27.90
2022-10-13T15:45:11.797Z,26.00
2022-10-13T15:47:42.560Z,28.20
2022-10-13T15:50:13.101Z,29.40
2022-10-13T15:52:43.768Z,29.00
2022-10-13T15:55:14.724Z,27.60
2022-10-13T15:57:45.751Z,24.50
2022-10-13T16:00:18.235Z,28.20
2022-10-13T16:02:52.010Z,34.50
2022-10-13T16:05:22.939Z,30.40
2022-10-13T16:07:54.355Z,26.80
2022-10-13T16:10:24.756Z,29.60
2022-10-13T16:12:55.166Z,26.40
2022-10-13T16:15:25.549Z,25.10
2022-10-13T16:17:56.191Z,27.70
2022-10-13T16:20:26.817Z,29.70
2022-10-13T16:22:57.624Z,26.10
2022-10-13T16:25:32.154Z,29.40
2022-10-13T16:28:06.371Z,26.40
2022-10-13T16:30:39.384Z,26.40
2022-10-13T16:33:09.908Z,27.00
2022-10-13T16:35:43.971Z,25.50
2022-10-13T16:38:15.736Z,25.80
2022-10-13T16:40:46.681Z,29.50
2022-10-13T16:43:18.348Z,26.90
2022-10-13T16:46:00.227Z,29.30
2022-10-13T16:48:32.695Z,30.20
2022-10-13T16:51:08.267Z,28.00
2022-10-13T16:53:41.248Z,27.20
2022-10-13T16:56:12.210Z,30.20
2022-10-13T16:58:44.929Z,33.10
2022-10-13T17:01:15.572Z,31.10
2022-10-13T17:03:47.304Z,31.60
2022-10-13T17:06:19.728Z,28.50
2022-10-13T17:08:57.449Z,32.60
2022-10-13T17:11:30.314Z,29.80
2022-10-13T17:14:02.080Z,33.60
2022-10-13T17:16:36.280Z,33.90
2022-10-13T17:19:07.115Z,34.70
2022-10-13T17:21:39.572Z,34.70
2022-10-13T17:24:12.381Z,35.10
2022-10-13T17:26:45.140Z,38.00
2022-10-13T17:29:18.557Z,30.50
2022-10-13T17:31:50.592Z,33.40
2022-10-13T17:36:57.129Z,28.20
2022-10-13T17:39:29.296Z,37.80
2022-10-13T17:42:02.174Z,33.70
2022-10-13T17:44:34.753Z,34.60
2022-10-13T17:47:08.195Z,33.70
2022-10-13T17:49:41.733Z,37.30
2022-10-13T17:52:15.169Z,36.50
2022-10-13T17:54:49.471Z,44.00
2022-10-13T17:57:22.616Z,38.00
2022-10-13T17:59:54.490Z,42.10
2022-10-13T18:02:29.204Z,40.90
2022-10-13T18:05:01.529Z,43.30
2022-10-13T18:07:35.467Z,43.60
2022-10-13T18:10:11.207Z,43.70
2022-10-13T18:12:42.892Z,40.00
2022-10-13T18:15:17.692Z,43.50
2022-10-13T18:17:51.356Z,38.40
2022-10-13T18:20:24.058Z,45.60
2022-10-13T18:22:59.183Z,42.30
2022-10-13T18:31:39.829Z,38.00
2022-10-13T18:34:11.959Z,35.40
2022-10-13T18:36:55.884Z,37.60
2022-10-13T18:39:28.064Z,38.10
2022-10-13T18:41:59.312Z,40.70
2022-10-13T18:44:39.775Z,38.60
2022-10-13T18:47:10.320Z,38.90
2022-10-13T18:49:42.164Z,36.60
2022-10-13T18:52:12.847Z,31.60
2022-10-13T18:54:43.204Z,33.90
2022-10-13T18:57:13.746Z,39.30
2022-10-13T18:59:45.289Z,38.30
2022-10-13T19:02:16.460Z,36.80
2022-10-13T19:04:54.405Z,34.00
2022-10-13T19:07:36.843Z,33.90
2022-10-13T19:10:16.453Z,33.00
2022-10-13T19:12:47.091Z,41.40
2022-10-13T19:15:17.922Z,36.70
2022-10-13T19:17:48.422Z,31.90
2022-10-13T19:20:19.077Z,31.80
2022-10-13T19:22:57.279Z,33.90
2022-10-13T19:25:27.792Z,33.40
2022-10-13T19:27:58.494Z,31.10
2022-10-13T19:30:29.272Z,34.50
2022-10-13T19:33:00.252Z,32.60
2022-10-13T19:35:30.973Z,32.20
2022-10-13T19:38:01.569Z,31.30
2022-10-13T19:40:35.305Z,29.20
2022-10-13T19:43:07.270Z,32.70
2022-10-13T19:45:37.798Z,33.20
2022-10-13T19:48:11.164Z,31.40
2022-10-13T19:50:42.547Z,30.30
2022-10-13T19:53:17.489Z,30.80
2022-10-13T19:55:49.555Z,28.30
2022-10-13T19:58:20.268Z,27.20
2022-10-13T20:00:52.125Z,26.20
2022-10-13T20:03:22.683Z,25.10
2022-10-13T20:05:55.404Z,24.50
2022-10-13T20:08:26.013Z,25.80
2022-10-13T20:11:00.765Z,24.20
2022-10-13T20:13:31.591Z,20.20
2022-10-13T20:18:36.377Z,22.50
2022-10-13T20:21:08.721Z,18.10
2022-10-13T20:23:40.697Z,19.00
2022-10-13T20:26:13.929Z,21.20
2022-10-13T20:28:45.608Z,20.80
2022-10-13T20:31:18.944Z,20.30
2022-10-13T20:33:50.626Z,20.40
2022-10-13T20:36:22.286Z,25.80
2022-10-13T20:38:52.993Z,22.10
2022-10-13T20:41:25.676Z,19.70
2022-10-13T20:43:58.053Z,20.10
2022-10-13T20:46:29.022Z,24.00
2022-10-13T20:49:15.042Z,21.40
2022-10-13T20:51:45.661Z,18.30
2022-10-13T20:54:17.306Z,20.10
2022-10-13T20:56:48.156Z,21.40
2022-10-13T20:59:18.813Z,24.10
2022-10-13T21:01:49.332Z,22.80
2022-10-13T21:04:20.184Z,28.40
2022-10-13T21:06:50.971Z,19.10
2022-10-13T21:09:21.590Z,20.80
2022-10-13T21:11:52.248Z,21.90
2022-10-13T21:14:22.856Z,21.90
2022-10-13T21:16:53.450Z,22.10
2022-10-13T21:19:24.123Z,22.40
2022-10-13T21:21:54.531Z,23.30
2022-10-13T21:24:24.994Z,24.60
2022-10-13T21:26:55.428Z,28.20
2022-10-13T21:29:26.845Z,25.90
2022-10-13T21:31:57.680Z,23.40
2022-10-13T21:34:28.437Z,25.70
2022-10-13T21:36:58.953Z,26.50
2022-10-13T21:39:29.492Z,25.40
2022-10-13T21:41:59.874Z,25.70
2022-10-13T21:44:31.474Z,24.30
2022-10-13T21:47:02.146Z,23.70
2022-10-13T21:49:32.972Z,22.10
2022-10-13T21:52:03.598Z,26.50
2022-10-13T21:54:34.388Z,30.00
2022-10-13T21:57:04.961Z,26.10
2022-10-13T21:59:35.572Z,25.70
2022-10-13T22:02:06.228Z,24.60
2022-10-13T22:04:37.117Z,22.00
2022-10-13T22:07:08.067Z,28.30
2022-10-13T22:09:38.663Z,26.70
2022-10-13T22:12:09.383Z,26.70
2022-10-13T22:14:39.954Z,29.30
2022-10-13T22:17:10.398Z,30.40
2022-10-13T22:19:40.837Z,26.80
2022-10-13T22:22:11.299Z,25.60
2022-10-13T22:24:41.818Z,31.00
2022-10-13T22:27:12.485Z,27.60
2022-10-13T22:29:43.071Z,29.90
2022-10-13T22:32:13.807Z,30.00
2022-10-13T22:34:46.249Z,23.40
2022-10-13T22:37:17.290Z,26.70
2022-10-13T22:39:47.887Z,28.30
2022-10-13T22:42:18.638Z,25.40
2022-10-13T22:44:49.245Z,28.80
2022-10-13T22:47:20.083Z,28.70
2022-10-13T22:49:50.928Z,32.60
2022-10-13T22:52:22.461Z,35.90
2022-10-13T22:54:53.991Z,30.90
2022-10-13T22:57:25.070Z,29.20
2022-10-13T22:59:55.867Z,28.90
2022-10-13T23:02:26.361Z,34.00
2022-10-13T23:04:56.789Z,28.50
2022-10-13T23:07:27.385Z,26.30
2022-10-13T23:09:57.757Z,28.30
2022-10-13T23:12:28.135Z,25.70
2022-10-13T23:14:58.748Z,29.20
2022-10-13T23:17:29.327Z,26.90
2022-10-13T23:20:00.131Z,28.50
2022-10-13T23:22:30.776Z,25.80
2022-10-13T23:25:01.358Z,28.80
2022-10-13T23:27:32.044Z,28.60
2022-10-13T23:30:02.801Z,26.90
2022-10-13T23:32:34.891Z,25.70
2022-10-13T23:35:05.865Z,26.40
2022-10-13T23:37:36.450Z,24.90
2022-10-13T23:40:08.548Z,24.80
2022-10-13T23:42:39.063Z,28.40
2022-10-13T23:45:10.936Z,25.10
2022-10-13T23:47:41.390Z,25.10
2022-10-13T23:50:12.422Z,28.70
2022-10-13T23:52:42.847Z,26.40
2022-10-13T23:55:13.318Z,25.60
2022-10-13T23:57:43.925Z,24.70
